sensor_id;sensor_type;location;lat;lon;timestamp;temperature;humidity
43627;DHT22;29217;52.586;13.442;2023-09-08T00:00:56;15.80;99.90
43627;DHT22;29217;52.586;13.442;2023-09-08T00:03:21;15.60;99.90
43627;DHT22;29217;52.586;13.442;2023-09-08T00:05:47;15.50;99.90
43627;DHT22;29217;52.586;13.442;2023-09-08T00:08:13;15.50;99.90
43627;DHT22;29217;52.586;13.442;2023-09-08T00:10:38;15.50;99.90
43627;DHT22;29217;52.586;13.442;2023-09-08T00:13:04;15.60;99.90
43627;DHT22;29217;52.586;13.442;2023-09-08T00:15:30;15.40;99.90
43627;DHT22;29217;52.586;13.442;2023-09-08T00:17:55;15.40;99.90
43627;DHT22;29217;52.586;13.442;2023-09-08T00:20:22;15.40;99.90
43627;DHT22;29217;52.586;13.442;2023-09-08T00:22:47;15.40;99.90
43627;DHT22;29217;52.586;13.442;2023-09-08T00:25:13;15.40;99.90
43627;DHT22;29217;52.586;13.442;2023-09-08T00:27:39;15.30;99.90
43627;DHT22;29217;52.586;13.442;2023-09-08T00:30:05;15.40;99.90
43627;DHT22;29217;52.586;13.442;2023-09-08T00:32:31;15.40;99.90
43627;DHT22;29217;52.586;13.442;2023-09-08T00:34:56;15.40;99.90
43627;DHT22;29217;52.586;13.442;2023-09-08T00:37:22;15.40;99.90
43627;DHT22;29217;52.586;13.442;2023-09-08T00:39:47;15.40;99.90
43627;DHT22;29217;52.586;13.442;2023-09-08T00:42:13;15.40;99.90
43627;DHT22;29217;52.586;13.442;2023-09-08T00:44:38;15.40;99.90
43627;DHT22;29217;52.586;13.442;2023-09-08T00:47:04;15.40;99.90
43627;DHT22;29217;52.586;13.442;2023-09-08T00:49:30;15.30;99.90
43627;DHT22;29217;52.586;13.442;2023-09-08T00:51:56;15.30;99.90
43627;DHT22;29217;52.586;13.442;2023-09-08T00:54:22;15.40;99.90
43627;DHT22;29217;52.586;13.442;2023-09-08T00:56:48;15.30;99.90
43627;DHT22;29217;52.586;13.442;2023-09-08T00:59:14;15.20;99.90
43627;DHT22;29217;52.586;13.442;2023-09-08T01:01:40;15.20;99.90
43627;DHT22;29217;52.586;13.442;2023-09-08T01:04:06;15.20;99.90
43627;DHT22;29217;52.586;13.442;2023-09-08T01:06:32;15.30;99.90
43627;DHT22;29217;52.586;13.442;2023-09-08T01:09:01;15.30;99.90
43627;DHT22;29217;52.586;13.442;2023-09-08T01:11:28;15.20;99.90
43627;DHT22;29217;52.586;13.442;2023-09-08T01:13:53;15.10;99.90
43627;DHT22;29217;52.586;13.442;2023-09-08T01:16:19;15.10;99.90
43627;DHT22;29217;52.586;13.442;2023-09-08T01:18:46;15.10;99.90
43627;DHT22;29217;52.586;13.442;2023-09-08T01:26:57;15.20;99.90
43627;DHT22;29217;52.586;13.442;2023-09-08T01:29:22;15.20;99.90
43627;DHT22;29217;52.586;13.442;2023-09-08T01:31:51;15.10;99.90
43627;DHT22;29217;52.586;13.442;2023-09-08T01:34:18;15.10;99.90
43627;DHT22;29217;52.586;13.442;2023-09-08T01:36:45;15.10;99.90
43627;DHT22;29217;52.586;13.442;2023-09-08T01:39:11;15.10;99.90
43627;DHT22;29217;52.586;13.442;2023-09-08T01:41:36;15.10;99.90
43627;DHT22;29217;52.586;13.442;2023-09-08T01:44:02;15.10;99.90
43627;DHT22;29217;52.586;13.442;2023-09-08T01:46:33;15.10;99.90
43627;DHT22;29217;52.586;13.442;2023-09-08T01:48:59;15.10;99.90
43627;DHT22;29217;52.586;13.442;2023-09-08T01:51:25;15.10;99.90
43627;DHT22;29217;52.586;13.442;2023-09-08T01:53:50;15.00;99.90
43627;DHT22;29217;52.586;13.442;2023-09-08T01:56:16;15.00;99.90
43627;DHT22;29217;52.586;13.442;2023-09-08T01:58:41;15.00;99.90
43627;DHT22;29217;52.586;13.442;2023-09-08T02:01:07;14.90;99.90
43627;DHT22;29217;52.586;13.442;2023-09-08T02:03:32;14.80;99.90
43627;DHT22;29217;52.586;13.442;2023-09-08T02:05:58;14.90;99.90
43627;DHT22;29217;52.586;13.442;2023-09-08T02:08:24;14.90;99.90
43627;DHT22;29217;52.586;13.442;2023-09-08T02:10:49;14.90;99.90
43627;DHT22;29217;52.586;13.442;2023-09-08T02:13:15;14.70;99.90
43627;DHT22;29217;52.586;13.442;2023-09-08T02:15:40;14.70;99.90
43627;DHT22;29217;52.586;13.442;2023-09-08T02:18:07;14.70;99.90
43627;DHT22;29217;52.586;13.442;2023-09-08T02:20:33;14.70;99.90
43627;DHT22;29217;52.586;13.442;2023-09-08T02:23:05;14.70;99.90
43627;DHT22;29217;52.586;13.442;2023-09-08T02:25:31;14.70;99.90
43627;DHT22;29217;52.586;13.442;2023-09-08T02:27:56;14.80;99.90
43627;DHT22;29217;52.586;13.442;2023-09-08T02:30:22;14.50;99.90
43627;DHT22;29217;52.586;13.442;2023-09-08T02:32:47;14.50;99.90
43627;DHT22;29217;52.586;13.442;2023-09-08T02:35:13;14.60;99.90
43627;DHT22;29217;52.586;13.442;2023-09-08T02:37:39;14.60;99.90
43627;DHT22;29217;52.586;13.442;2023-09-08T02:40:06;14.70;99.90
43627;DHT22;29217;52.586;13.442;2023-09-08T02:42:32;14.70;99.90
43627;DHT22;29217;52.586;13.442;2023-09-08T02:44:57;14.60;99.90
43627;DHT22;29217;52.586;13.442;2023-09-08T02:47:23;14.60;99.90
43627;DHT22;29217;52.586;13.442;2023-09-08T02:49:48;14.60;99.90
43627;DHT22;29217;52.586;13.442;2023-09-08T02:52:14;14.60;99.90
43627;DHT22;29217;52.586;13.442;2023-09-08T02:54:40;14.70;99.90
43627;DHT22;29217;52.586;13.442;2023-09-08T02:57:05;14.70;99.90
43627;DHT22;29217;52.586;13.442;2023-09-08T02:59:31;14.60;99.90
43627;DHT22;29217;52.586;13.442;2023-09-08T03:01:56;14.60;99.90
43627;DHT22;29217;52.586;13.442;2023-09-08T03:04:22;14.60;99.90
43627;DHT22;29217;52.586;13.442;2023-09-08T03:06:47;14.60;99.90
43627;DHT22;29217;52.586;13.442;2023-09-08T03:09:13;14.60;99.90
43627;DHT22;29217;52.586;13.442;2023-09-08T03:11:39;14.60;99.90
43627;DHT22;29217;52.586;13.442;2023-09-08T03:14:04;14.60;99.90
43627;DHT22;29217;52.586;13.442;2023-09-08T03:16:30;14.60;99.90
43627;DHT22;29217;52.586;13.442;2023-09-08T03:18:55;14.50;99.90
43627;DHT22;29217;52.586;13.442;2023-09-08T03:21:21;14.50;99.90
43627;DHT22;29217;52.586;13.442;2023-09-08T03:23:47;14.50;99.90
43627;DHT22;29217;52.586;13.442;2023-09-08T03:26:13;14.40;99.90
43627;DHT22;29217;52.586;13.442;2023-09-08T03:28:39;14.40;99.90
43627;DHT22;29217;52.586;13.442;2023-09-08T03:31:05;14.30;99.90
43627;DHT22;29217;52.586;13.442;2023-09-08T03:33:30;14.20;99.90
43627;DHT22;29217;52.586;13.442;2023-09-08T03:35:57;14.20;99.90
43627;DHT22;29217;52.586;13.442;2023-09-08T03:38:22;14.10;99.90
43627;DHT22;29217;52.586;13.442;2023-09-08T03:40:48;14.00;99.90
43627;DHT22;29217;52.586;13.442;2023-09-08T03:43:14;13.90;99.90
43627;DHT22;29217;52.586;13.442;2023-09-08T03:45:40;13.90;99.90
43627;DHT22;29217;52.586;13.442;2023-09-08T03:48:06;13.80;99.90
43627;DHT22;29217;52.586;13.442;2023-09-08T03:50:31;13.70;99.90
43627;DHT22;29217;52.586;13.442;2023-09-08T03:52:57;13.80;99.90
43627;DHT22;29217;52.586;13.442;2023-09-08T03:55:22;13.80;99.90
43627;DHT22;29217;52.586;13.442;2023-09-08T03:57:48;13.90;99.90
43627;DHT22;29217;52.586;13.442;2023-09-08T04:00:14;13.80;99.90
43627;DHT22;29217;52.586;13.442;2023-09-08T04:02:49;13.60;99.90
43627;DHT22;29217;52.586;13.442;2023-09-08T04:05:16;13.50;99.90
43627;DHT22;29217;52.586;13.442;2023-09-08T04:07:45;13.60;99.90
43627;DHT22;29217;52.586;13.442;2023-09-08T04:10:10;13.70;99.90
43627;DHT22;29217;52.586;13.442;2023-09-08T04:12:36;13.80;99.90
43627;DHT22;29217;52.586;13.442;2023-09-08T04:15:02;13.80;99.90
43627;DHT22;29217;52.586;13.442;2023-09-08T04:17:27;13.80;99.90
43627;DHT22;29217;52.586;13.442;2023-09-08T04:19:54;13.80;99.90
43627;DHT22;29217;52.586;13.442;2023-09-08T04:22:20;13.80;99.90
43627;DHT22;29217;52.586;13.442;2023-09-08T04:24:45;13.70;99.90
43627;DHT22;29217;52.586;13.442;2023-09-08T04:27:11;13.70;99.90
43627;DHT22;29217;52.586;13.442;2023-09-08T04:29:36;13.70;99.90
43627;DHT22;29217;52.586;13.442;2023-09-08T04:32:02;13.60;99.90
43627;DHT22;29217;52.586;13.442;2023-09-08T04:34:38;13.40;99.90
43627;DHT22;29217;52.586;13.442;2023-09-08T04:37:04;13.30;99.90
43627;DHT22;29217;52.586;13.442;2023-09-08T04:39:30;13.10;99.90
43627;DHT22;29217;52.586;13.442;2023-09-08T04:41:56;13.20;99.90
43627;DHT22;29217;52.586;13.442;2023-09-08T04:44:21;13.20;99.90
43627;DHT22;29217;52.586;13.442;2023-09-08T04:46:47;13.20;99.90
43627;DHT22;29217;52.586;13.442;2023-09-08T04:49:13;13.10;99.90
43627;DHT22;29217;52.586;13.442;2023-09-08T04:51:39;13.10;99.90
43627;DHT22;29217;52.586;13.442;2023-09-08T04:54:04;13.10;99.90
43627;DHT22;29217;52.586;13.442;2023-09-08T04:56:30;13.10;99.90
43627;DHT22;29217;52.586;13.442;2023-09-08T04:58:56;13.10;99.90
43627;DHT22;29217;52.586;13.442;2023-09-08T05:01:23;13.10;99.90
43627;DHT22;29217;52.586;13.442;2023-09-08T05:03:49;13.20;99.90
43627;DHT22;29217;52.586;13.442;2023-09-08T05:06:14;13.30;99.90
43627;DHT22;29217;52.586;13.442;2023-09-08T05:08:40;13.30;99.90
43627;DHT22;29217;52.586;13.442;2023-09-08T05:11:05;13.40;99.90
43627;DHT22;29217;52.586;13.442;2023-09-08T05:13:31;13.40;99.90
43627;DHT22;29217;52.586;13.442;2023-09-08T05:15:57;13.40;99.90
43627;DHT22;29217;52.586;13.442;2023-09-08T05:18:26;13.40;99.90
43627;DHT22;29217;52.586;13.442;2023-09-08T05:20:52;13.50;99.90
43627;DHT22;29217;52.586;13.442;2023-09-08T05:23:18;13.60;99.90
43627;DHT22;29217;52.586;13.442;2023-09-08T05:25:45;13.70;99.90
43627;DHT22;29217;52.586;13.442;2023-09-08T05:28:11;13.80;99.90
43627;DHT22;29217;52.586;13.442;2023-09-08T05:30:36;13.90;99.90
43627;DHT22;29217;52.586;13.442;2023-09-08T05:33:02;14.00;99.90
43627;DHT22;29217;52.586;13.442;2023-09-08T05:35:27;14.10;99.90
43627;DHT22;29217;52.586;13.442;2023-09-08T05:37:53;14.10;99.90
43627;DHT22;29217;52.586;13.442;2023-09-08T05:40:18;14.30;99.90
43627;DHT22;29217;52.586;13.442;2023-09-08T05:42:46;14.30;99.90
43627;DHT22;29217;52.586;13.442;2023-09-08T05:45:12;14.50;99.90
43627;DHT22;29217;52.586;13.442;2023-09-08T05:47:37;14.60;99.90
43627;DHT22;29217;52.586;13.442;2023-09-08T05:50:03;14.70;99.90
43627;DHT22;29217;52.586;13.442;2023-09-08T05:52:29;14.80;99.90
43627;DHT22;29217;52.586;13.442;2023-09-08T05:54:54;14.80;99.90
43627;DHT22;29217;52.586;13.442;2023-09-08T05:57:20;15.00;99.90
43627;DHT22;29217;52.586;13.442;2023-09-08T05:59:45;15.00;99.90
43627;DHT22;29217;52.586;13.442;2023-09-08T06:02:11;15.10;99.90
43627;DHT22;29217;52.586;13.442;2023-09-08T06:04:37;15.20;99.90
43627;DHT22;29217;52.586;13.442;2023-09-08T06:07:02;15.30;99.90
43627;DHT22;29217;52.586;13.442;2023-09-08T06:09:28;15.40;99.90
43627;DHT22;29217;52.586;13.442;2023-09-08T06:11:53;15.50;99.90
43627;DHT22;29217;52.586;13.442;2023-09-08T06:14:19;15.60;99.90
43627;DHT22;29217;52.586;13.442;2023-09-08T06:16:45;15.80;99.90
43627;DHT22;29217;52.586;13.442;2023-09-08T06:19:12;15.90;99.90
43627;DHT22;29217;52.586;13.442;2023-09-08T06:21:37;15.90;99.90
43627;DHT22;29217;52.586;13.442;2023-09-08T06:24:03;16.10;99.90
43627;DHT22;29217;52.586;13.442;2023-09-08T06:26:29;16.20;99.90
43627;DHT22;29217;52.586;13.442;2023-09-08T06:28:54;16.30;99.90
43627;DHT22;29217;52.586;13.442;2023-09-08T06:31:20;16.30;99.90
43627;DHT22;29217;52.586;13.442;2023-09-08T06:33:46;16.40;99.90
43627;DHT22;29217;52.586;13.442;2023-09-08T06:36:11;16.50;99.90
43627;DHT22;29217;52.586;13.442;2023-09-08T06:38:37;16.60;99.90
43627;DHT22;29217;52.586;13.442;2023-09-08T06:41:11;16.80;99.90
43627;DHT22;29217;52.586;13.442;2023-09-08T06:43:37;16.90;99.90
43627;DHT22;29217;52.586;13.442;2023-09-08T06:46:03;17.10;99.90
43627;DHT22;29217;52.586;13.442;2023-09-08T06:48:29;17.20;99.90
43627;DHT22;29217;52.586;13.442;2023-09-08T06:50:56;17.20;99.90
43627;DHT22;29217;52.586;13.442;2023-09-08T06:53:25;17.40;99.90
43627;DHT22;29217;52.586;13.442;2023-09-08T06:55:50;17.50;99.90
43627;DHT22;29217;52.586;13.442;2023-09-08T06:58:16;17.60;99.90
43627;DHT22;29217;52.586;13.442;2023-09-08T07:00:42;17.70;99.90
43627;DHT22;29217;52.586;13.442;2023-09-08T07:03:07;17.80;99.90
43627;DHT22;29217;52.586;13.442;2023-09-08T07:05:34;17.90;99.90
43627;DHT22;29217;52.586;13.442;2023-09-08T07:07:59;18.10;99.90
43627;DHT22;29217;52.586;13.442;2023-09-08T07:10:25;18.20;99.90
43627;DHT22;29217;52.586;13.442;2023-09-08T07:12:51;18.30;99.90
43627;DHT22;29217;52.586;13.442;2023-09-08T07:15:16;18.40;99.90
43627;DHT22;29217;52.586;13.442;2023-09-08T07:17:42;18.50;99.90
43627;DHT22;29217;52.586;13.442;2023-09-08T07:20:08;18.60;99.90
43627;DHT22;29217;52.586;13.442;2023-09-08T07:22:34;18.70;99.90
43627;DHT22;29217;52.586;13.442;2023-09-08T07:24:59;18.90;99.90
43627;DHT22;29217;52.586;13.442;2023-09-08T07:27:25;19.00;99.90
43627;DHT22;29217;52.586;13.442;2023-09-08T07:29:51;19.30;99.90
43627;DHT22;29217;52.586;13.442;2023-09-08T07:32:17;19.50;99.90
43627;DHT22;29217;52.586;13.442;2023-09-08T07:34:43;19.70;99.90
43627;DHT22;29217;52.586;13.442;2023-09-08T07:37:09;19.80;99.90
43627;DHT22;29217;52.586;13.442;2023-09-08T07:39:34;19.90;99.90
43627;DHT22;29217;52.586;13.442;2023-09-08T07:42:01;20.00;99.90
43627;DHT22;29217;52.586;13.442;2023-09-08T07:44:27;20.10;99.90
43627;DHT22;29217;52.586;13.442;2023-09-08T07:46:52;20.20;99.90
43627;DHT22;29217;52.586;13.442;2023-09-08T07:49:20;20.30;99.90
43627;DHT22;29217;52.586;13.442;2023-09-08T07:51:46;20.40;99.90
43627;DHT22;29217;52.586;13.442;2023-09-08T07:54:13;20.50;99.90
43627;DHT22;29217;52.586;13.442;2023-09-08T07:56:39;20.60;99.90
43627;DHT22;29217;52.586;13.442;2023-09-08T07:59:06;20.60;99.90
43627;DHT22;29217;52.586;13.442;2023-09-08T08:01:32;20.70;99.90
43627;DHT22;29217;52.586;13.442;2023-09-08T08:03:58;20.80;99.90
43627;DHT22;29217;52.586;13.442;2023-09-08T08:06:23;20.90;99.90
43627;DHT22;29217;52.586;13.442;2023-09-08T08:08:49;20.90;99.90
43627;DHT22;29217;52.586;13.442;2023-09-08T08:11:16;21.00;99.90
43627;DHT22;29217;52.586;13.442;2023-09-08T08:13:43;21.10;99.90
43627;DHT22;29217;52.586;13.442;2023-09-08T08:16:10;21.20;99.90
43627;DHT22;29217;52.586;13.442;2023-09-08T08:18:36;21.30;99.90
43627;DHT22;29217;52.586;13.442;2023-09-08T08:21:01;21.40;99.90
43627;DHT22;29217;52.586;13.442;2023-09-08T08:23:29;21.40;99.90
43627;DHT22;29217;52.586;13.442;2023-09-08T08:25:55;21.60;99.90
43627;DHT22;29217;52.586;13.442;2023-09-08T08:28:21;21.70;99.90
43627;DHT22;29217;52.586;13.442;2023-09-08T08:30:46;21.80;99.90
43627;DHT22;29217;52.586;13.442;2023-09-08T08:33:13;21.90;99.90
43627;DHT22;29217;52.586;13.442;2023-09-08T08:35:39;21.90;99.90
43627;DHT22;29217;52.586;13.442;2023-09-08T08:38:05;22.10;99.90
43627;DHT22;29217;52.586;13.442;2023-09-08T08:40:31;22.10;99.90
43627;DHT22;29217;52.586;13.442;2023-09-08T08:42:59;22.30;99.90
43627;DHT22;29217;52.586;13.442;2023-09-08T08:45:26;22.30;99.90
43627;DHT22;29217;52.586;13.442;2023-09-08T08:47:53;22.50;99.90
43627;DHT22;29217;52.586;13.442;2023-09-08T08:50:20;22.60;99.90
43627;DHT22;29217;52.586;13.442;2023-09-08T08:52:46;22.80;99.90
43627;DHT22;29217;52.586;13.442;2023-09-08T08:55:12;22.90;99.90
43627;DHT22;29217;52.586;13.442;2023-09-08T08:57:40;23.00;99.90
43627;DHT22;29217;52.586;13.442;2023-09-08T09:00:11;23.00;99.90
43627;DHT22;29217;52.586;13.442;2023-09-08T09:02:42;23.00;99.90
43627;DHT22;29217;52.586;13.442;2023-09-08T09:05:17;23.10;99.90
43627;DHT22;29217;52.586;13.442;2023-09-08T09:07:44;23.20;99.90
43627;DHT22;29217;52.586;13.442;2023-09-08T09:10:13;23.30;99.90
43627;DHT22;29217;52.586;13.442;2023-09-08T09:12:39;23.40;99.90
43627;DHT22;29217;52.586;13.442;2023-09-08T09:15:06;23.50;99.90
43627;DHT22;29217;52.586;13.442;2023-09-08T09:17:33;23.50;99.90
43627;DHT22;29217;52.586;13.442;2023-09-08T09:20:16;23.60;99.90
43627;DHT22;29217;52.586;13.442;2023-09-08T09:22:46;23.60;99.90
43627;DHT22;29217;52.586;13.442;2023-09-08T09:25:23;23.70;99.90
43627;DHT22;29217;52.586;13.442;2023-09-08T09:27:53;23.80;99.90
43627;DHT22;29217;52.586;13.442;2023-09-08T09:30:20;23.90;99.90
43627;DHT22;29217;52.586;13.442;2023-09-08T09:32:46;24.00;99.90
43627;DHT22;29217;52.586;13.442;2023-09-08T09:35:11;24.10;99.90
43627;DHT22;29217;52.586;13.442;2023-09-08T09:37:40;24.10;99.90
43627;DHT22;29217;52.586;13.442;2023-09-08T09:40:07;24.20;99.90
43627;DHT22;29217;52.586;13.442;2023-09-08T09:42:38;24.20;99.90
43627;DHT22;29217;52.586;13.442;2023-09-08T09:45:04;24.30;99.90
43627;DHT22;29217;52.586;13.442;2023-09-08T09:47:30;24.30;99.90
43627;DHT22;29217;52.586;13.442;2023-09-08T09:49:56;24.40;99.90
43627;DHT22;29217;52.586;13.442;2023-09-08T09:52:24;24.70;99.90
43627;DHT22;29217;52.586;13.442;2023-09-08T09:54:52;24.80;99.90
43627;DHT22;29217;52.586;13.442;2023-09-08T09:57:21;24.90;99.90
43627;DHT22;29217;52.586;13.442;2023-09-08T09:59:47;24.90;99.90
43627;DHT22;29217;52.586;13.442;2023-09-08T10:02:17;25.00;99.90
43627;DHT22;29217;52.586;13.442;2023-09-08T10:04:48;25.10;99.90
43627;DHT22;29217;52.586;13.442;2023-09-08T10:07:15;25.10;99.90
43627;DHT22;29217;52.586;13.442;2023-09-08T10:09:41;25.10;99.90
43627;DHT22;29217;52.586;13.442;2023-09-08T10:12:08;25.10;99.90
43627;DHT22;29217;52.586;13.442;2023-09-08T10:14:41;25.20;99.90
43627;DHT22;29217;52.586;13.442;2023-09-08T10:17:15;25.20;99.90
43627;DHT22;29217;52.586;13.442;2023-09-08T10:19:45;25.30;99.90
43627;DHT22;29217;52.586;13.442;2023-09-08T10:22:19;25.40;99.90
43627;DHT22;29217;52.586;13.442;2023-09-08T10:24:47;25.50;99.90
43627;DHT22;29217;52.586;13.442;2023-09-08T10:27:13;25.50;99.90
43627;DHT22;29217;52.586;13.442;2023-09-08T10:29:40;25.60;99.90
43627;DHT22;29217;52.586;13.442;2023-09-08T10:32:07;25.70;99.90
43627;DHT22;29217;52.586;13.442;2023-09-08T10:34:35;25.70;99.90
43627;DHT22;29217;52.586;13.442;2023-09-08T10:37:01;25.80;99.90
43627;DHT22;29217;52.586;13.442;2023-09-08T10:39:35;25.90;99.90
43627;DHT22;29217;52.586;13.442;2023-09-08T10:44:55;26.00;99.90
43627;DHT22;29217;52.586;13.442;2023-09-08T10:47:26;26.10;99.90
43627;DHT22;29217;52.586;13.442;2023-09-08T10:49:52;26.10;99.90
43627;DHT22;29217;52.586;13.442;2023-09-08T10:52:23;26.10;99.90
43627;DHT22;29217;52.586;13.442;2023-09-08T10:54:50;26.20;99.90
43627;DHT22;29217;52.586;13.442;2023-09-08T10:57:21;26.30;99.90
43627;DHT22;29217;52.586;13.442;2023-09-08T10:59:54;26.40;99.90
43627;DHT22;29217;52.586;13.442;2023-09-08T11:02:41;26.40;99.90
43627;DHT22;29217;52.586;13.442;2023-09-08T11:05:12;26.50;99.90
43627;DHT22;29217;52.586;13.442;2023-09-08T11:07:40;26.50;99.90
43627;DHT22;29217;52.586;13.442;2023-09-08T11:10:06;26.50;99.90
43627;DHT22;29217;52.586;13.442;2023-09-08T11:12:32;26.50;99.90
43627;DHT22;29217;52.586;13.442;2023-09-08T11:14:59;26.80;99.90
43627;DHT22;29217;52.586;13.442;2023-09-08T11:17:30;26.90;99.90
43627;DHT22;29217;52.586;13.442;2023-09-08T11:19:56;26.90;99.90
43627;DHT22;29217;52.586;13.442;2023-09-08T11:22:23;26.90;99.90
43627;DHT22;29217;52.586;13.442;2023-09-08T11:24:53;26.90;99.90
43627;DHT22;29217;52.586;13.442;2023-09-08T11:27:20;27.20;99.90
43627;DHT22;29217;52.586;13.442;2023-09-08T11:29:46;27.30;99.90
43627;DHT22;29217;52.586;13.442;2023-09-08T11:32:12;27.50;99.90
43627;DHT22;29217;52.586;13.442;2023-09-08T11:34:38;27.60;99.90
43627;DHT22;29217;52.586;13.442;2023-09-08T11:37:11;27.80;99.90
43627;DHT22;29217;52.586;13.442;2023-09-08T11:39:39;28.00;99.90
43627;DHT22;29217;52.586;13.442;2023-09-08T11:42:06;28.50;99.90
43627;DHT22;29217;52.586;13.442;2023-09-08T11:44:33;29.40;99.90
43627;DHT22;29217;52.586;13.442;2023-09-08T11:47:00;30.80;99.90
43627;DHT22;29217;52.586;13.442;2023-09-08T11:49:26;31.60;99.90
43627;DHT22;29217;52.586;13.442;2023-09-08T11:51:51;32.00;99.90
43627;DHT22;29217;52.586;13.442;2023-09-08T11:54:17;32.40;99.90
43627;DHT22;29217;52.586;13.442;2023-09-08T11:56:43;33.30;99.90
43627;DHT22;29217;52.586;13.442;2023-09-08T11:59:12;33.70;99.90
43627;DHT22;29217;52.586;13.442;2023-09-08T12:01:38;34.10;99.90
43627;DHT22;29217;52.586;13.442;2023-09-08T12:04:04;34.20;99.90
43627;DHT22;29217;52.586;13.442;2023-09-08T12:06:29;34.00;99.90
43627;DHT22;29217;52.586;13.442;2023-09-08T12:08:56;33.60;99.90
43627;DHT22;29217;52.586;13.442;2023-09-08T12:11:35;34.00;99.90
43627;DHT22;29217;52.586;13.442;2023-09-08T12:14:07;34.10;99.90
43627;DHT22;29217;52.586;13.442;2023-09-08T12:16:33;33.70;99.90
43627;DHT22;29217;52.586;13.442;2023-09-08T12:18:58;33.80;99.90
43627;DHT22;29217;52.586;13.442;2023-09-08T12:21:24;33.80;99.90
43627;DHT22;29217;52.586;13.442;2023-09-08T12:23:51;33.70;99.90
43627;DHT22;29217;52.586;13.442;2023-09-08T12:26:18;33.50;99.90
43627;DHT22;29217;52.586;13.442;2023-09-08T12:28:43;33.40;99.90
43627;DHT22;29217;52.586;13.442;2023-09-08T12:31:09;33.80;99.90
43627;DHT22;29217;52.586;13.442;2023-09-08T12:33:35;33.60;99.90
43627;DHT22;29217;52.586;13.442;2023-09-08T12:36:14;33.50;99.90
43627;DHT22;29217;52.586;13.442;2023-09-08T12:38:41;33.50;99.90
43627;DHT22;29217;52.586;13.442;2023-09-08T12:41:07;33.20;99.90
43627;DHT22;29217;52.586;13.442;2023-09-08T12:43:33;32.90;99.90
43627;DHT22;29217;52.586;13.442;2023-09-08T12:45:59;32.60;99.90
43627;DHT22;29217;52.586;13.442;2023-09-08T12:48:25;32.40;99.90
43627;DHT22;29217;52.586;13.442;2023-09-08T12:50:51;32.20;99.90
43627;DHT22;29217;52.586;13.442;2023-09-08T12:53:16;32.10;99.90
43627;DHT22;29217;52.586;13.442;2023-09-08T12:55:43;31.70;99.90
43627;DHT22;29217;52.586;13.442;2023-09-08T12:58:09;31.50;99.90
43627;DHT22;29217;52.586;13.442;2023-09-08T13:00:34;31.10;99.90
43627;DHT22;29217;52.586;13.442;2023-09-08T13:03:01;30.90;99.90
43627;DHT22;29217;52.586;13.442;2023-09-08T13:05:27;30.90;99.90
43627;DHT22;29217;52.586;13.442;2023-09-08T13:07:53;30.80;99.90
43627;DHT22;29217;52.586;13.442;2023-09-08T13:10:19;30.80;99.90
43627;DHT22;29217;52.586;13.442;2023-09-08T13:12:45;30.70;99.90
43627;DHT22;29217;52.586;13.442;2023-09-08T13:15:11;30.70;99.90
43627;DHT22;29217;52.586;13.442;2023-09-08T13:17:37;30.70;99.90
43627;DHT22;29217;52.586;13.442;2023-09-08T13:20:03;30.80;99.90
43627;DHT22;29217;52.586;13.442;2023-09-08T13:22:29;30.90;99.90
43627;DHT22;29217;52.586;13.442;2023-09-08T13:24:55;30.90;99.90
43627;DHT22;29217;52.586;13.442;2023-09-08T13:27:20;31.00;99.90
43627;DHT22;29217;52.586;13.442;2023-09-08T13:29:46;31.10;99.90
43627;DHT22;29217;52.586;13.442;2023-09-08T13:32:12;31.10;99.90
43627;DHT22;29217;52.586;13.442;2023-09-08T13:34:38;31.10;99.90
43627;DHT22;29217;52.586;13.442;2023-09-08T13:37:04;31.30;99.90
43627;DHT22;29217;52.586;13.442;2023-09-08T13:39:29;31.50;99.90
43627;DHT22;29217;52.586;13.442;2023-09-08T13:41:59;31.50;99.90
43627;DHT22;29217;52.586;13.442;2023-09-08T13:44:25;31.60;99.90
43627;DHT22;29217;52.586;13.442;2023-09-08T13:46:52;31.70;99.90
43627;DHT22;29217;52.586;13.442;2023-09-08T13:49:18;31.80;99.90
43627;DHT22;29217;52.586;13.442;2023-09-08T13:51:44;31.70;99.90
43627;DHT22;29217;52.586;13.442;2023-09-08T13:54:11;31.70;99.90
43627;DHT22;29217;52.586;13.442;2023-09-08T13:56:41;31.80;99.90
43627;DHT22;29217;52.586;13.442;2023-09-08T13:59:07;31.80;99.90
43627;DHT22;29217;52.586;13.442;2023-09-08T14:01:37;31.90;99.90
43627;DHT22;29217;52.586;13.442;2023-09-08T14:04:03;31.90;99.90
43627;DHT22;29217;52.586;13.442;2023-09-08T14:06:31;31.80;99.90
43627;DHT22;29217;52.586;13.442;2023-09-08T14:08:57;31.90;99.90
43627;DHT22;29217;52.586;13.442;2023-09-08T14:11:22;32.00;99.90
43627;DHT22;29217;52.586;13.442;2023-09-08T14:13:48;32.10;99.90
43627;DHT22;29217;52.586;13.442;2023-09-08T14:16:14;32.20;99.90
43627;DHT22;29217;52.586;13.442;2023-09-08T14:18:40;32.00;99.90
43627;DHT22;29217;52.586;13.442;2023-09-08T14:21:06;32.00;99.90
43627;DHT22;29217;52.586;13.442;2023-09-08T14:23:33;32.20;99.90
43627;DHT22;29217;52.586;13.442;2023-09-08T14:26:06;32.50;99.90
43627;DHT22;29217;52.586;13.442;2023-09-08T14:28:32;32.40;99.90
43627;DHT22;29217;52.586;13.442;2023-09-08T14:30:57;32.50;99.90
43627;DHT22;29217;52.586;13.442;2023-09-08T14:33:23;32.40;99.90
43627;DHT22;29217;52.586;13.442;2023-09-08T14:35:49;32.20;99.90
43627;DHT22;29217;52.586;13.442;2023-09-08T14:38:17;32.00;99.90
43627;DHT22;29217;52.586;13.442;2023-09-08T14:40:43;32.00;99.90
43627;DHT22;29217;52.586;13.442;2023-09-08T14:43:08;32.10;99.90
43627;DHT22;29217;52.586;13.442;2023-09-08T14:45:34;32.20;99.90
43627;DHT22;29217;52.586;13.442;2023-09-08T14:47:59;32.10;99.90
43627;DHT22;29217;52.586;13.442;2023-09-08T14:50:25;31.90;99.90
43627;DHT22;29217;52.586;13.442;2023-09-08T14:52:51;31.70;99.90
43627;DHT22;29217;52.586;13.442;2023-09-08T14:55:16;31.30;99.90
43627;DHT22;29217;52.586;13.442;2023-09-08T14:57:42;31.10;99.90
43627;DHT22;29217;52.586;13.442;2023-09-08T15:00:08;30.90;99.90
43627;DHT22;29217;52.586;13.442;2023-09-08T15:02:35;30.70;99.90
43627;DHT22;29217;52.586;13.442;2023-09-08T15:05:00;30.40;99.90
43627;DHT22;29217;52.586;13.442;2023-09-08T15:07:26;30.30;99.90
43627;DHT22;29217;52.586;13.442;2023-09-08T15:09:51;30.00;99.90
43627;DHT22;29217;52.586;13.442;2023-09-08T15:12:17;29.70;99.90
43627;DHT22;29217;52.586;13.442;2023-09-08T15:14:43;29.60;99.90
43627;DHT22;29217;52.586;13.442;2023-09-08T15:17:10;29.30;99.90
43627;DHT22;29217;52.586;13.442;2023-09-08T15:19:36;29.30;99.90